sensor_id;sensor_type;location;lat;lon;timestamp;P1;durP1;ratioP1;P2;durP2;ratioP2
29416;SDS011;28421;51.030;4.006;2023-09-18T00:00:46;18.00;;;7.03;;
29416;SDS011;28421;51.030;4.006;2023-09-18T00:03:15;11.15;;;8.00;;
29416;SDS011;28421;51.030;4.006;2023-09-18T00:05:46;12.35;;;8.07;;
29416;SDS011;28421;51.030;4.006;2023-09-18T00:08:15;10.73;;;7.82;;
29416;SDS011;28421;51.030;4.006;2023-09-18T00:10:42;11.68;;;7.45;;
29416;SDS011;28421;51.030;4.006;2023-09-18T00:13:11;15.00;;;7.93;;
29416;SDS011;28421;51.030;4.006;2023-09-18T00:15:36;11.88;;;7.07;;
29416;SDS011;28421;51.030;4.006;2023-09-18T00:18:03;11.73;;;7.25;;
29416;SDS011;28421;51.030;4.006;2023-09-18T00:20:29;11.68;;;6.95;;
29416;SDS011;28421;51.030;4.006;2023-09-18T00:22:54;17.65;;;7.93;;
29416;SDS011;28421;51.030;4.006;2023-09-18T00:25:21;12.70;;;8.00;;
29416;SDS011;28421;51.030;4.006;2023-09-18T00:27:47;9.63;;;7.28;;
29416;SDS011;28421;51.030;4.006;2023-09-18T00:30:12;11.43;;;7.95;;
29416;SDS011;28421;51.030;4.006;2023-09-18T00:32:38;13.70;;;7.25;;
29416;SDS011;28421;51.030;4.006;2023-09-18T00:35:03;13.95;;;7.90;;
29416;SDS011;28421;51.030;4.006;2023-09-18T00:37:29;11.75;;;7.50;;
29416;SDS011;28421;51.030;4.006;2023-09-18T00:39:55;10.55;;;6.55;;
29416;SDS011;28421;51.030;4.006;2023-09-18T00:42:20;8.05;;;6.80;;
29416;SDS011;28421;51.030;4.006;2023-09-18T00:44:48;14.25;;;7.75;;
29416;SDS011;28421;51.030;4.006;2023-09-18T00:47:14;11.30;;;7.22;;
29416;SDS011;28421;51.030;4.006;2023-09-18T00:49:41;10.77;;;6.45;;
29416;SDS011;28421;51.030;4.006;2023-09-18T00:52:08;14.20;;;6.85;;
29416;SDS011;28421;51.030;4.006;2023-09-18T00:54:35;8.68;;;6.18;;
29416;SDS011;28421;51.030;4.006;2023-09-18T00:57:02;12.00;;;6.53;;
29416;SDS011;28421;51.030;4.006;2023-09-18T00:59:28;9.82;;;5.72;;
29416;SDS011;28421;51.030;4.006;2023-09-18T01:01:54;9.73;;;6.43;;
29416;SDS011;28421;51.030;4.006;2023-09-18T01:04:20;9.70;;;5.55;;
29416;SDS011;28421;51.030;4.006;2023-09-18T01:06:46;12.35;;;5.80;;
29416;SDS011;28421;51.030;4.006;2023-09-18T01:09:16;9.40;;;6.00;;
29416;SDS011;28421;51.030;4.006;2023-09-18T01:16:44;11.20;;;5.00;;
29416;SDS011;28421;51.030;4.006;2023-09-18T01:19:45;10.05;;;4.57;;
29416;SDS011;28421;51.030;4.006;2023-09-18T01:22:13;10.85;;;5.10;;
29416;SDS011;28421;51.030;4.006;2023-09-18T01:24:40;6.93;;;4.78;;
29416;SDS011;28421;51.030;4.006;2023-09-18T01:27:09;13.63;;;5.05;;
29416;SDS011;28421;51.030;4.006;2023-09-18T01:29:39;12.57;;;4.90;;
29416;SDS011;28421;51.030;4.006;2023-09-18T01:32:05;9.18;;;5.13;;
29416;SDS011;28421;51.030;4.006;2023-09-18T01:34:35;8.70;;;5.18;;
29416;SDS011;28421;51.030;4.006;2023-09-18T01:37:04;15.40;;;5.45;;
29416;SDS011;28421;51.030;4.006;2023-09-18T01:39:33;10.52;;;5.68;;
29416;SDS011;28421;51.030;4.006;2023-09-18T01:42:05;7.43;;;5.55;;
29416;SDS011;28421;51.030;4.006;2023-09-18T01:44:32;11.50;;;5.45;;
29416;SDS011;28421;51.030;4.006;2023-09-18T01:46:58;12.45;;;4.88;;
29416;SDS011;28421;51.030;4.006;2023-09-18T01:49:31;13.52;;;4.85;;
29416;SDS011;28421;51.030;4.006;2023-09-18T01:52:03;10.18;;;4.47;;
29416;SDS011;28421;51.030;4.006;2023-09-18T01:54:31;6.88;;;5.47;;
29416;SDS011;28421;51.030;4.006;2023-09-18T01:56:57;7.40;;;5.03;;
29416;SDS011;28421;51.030;4.006;2023-09-18T01:59:23;8.60;;;5.22;;
29416;SDS011;28421;51.030;4.006;2023-09-18T02:01:49;6.75;;;4.53;;
29416;SDS011;28421;51.030;4.006;2023-09-18T02:04:15;8.63;;;5.43;;
29416;SDS011;28421;51.030;4.006;2023-09-18T02:06:44;6.22;;;4.45;;
29416;SDS011;28421;51.030;4.006;2023-09-18T02:09:09;5.93;;;4.65;;
29416;SDS011;28421;51.030;4.006;2023-09-18T02:11:36;6.45;;;4.60;;
29416;SDS011;28421;51.030;4.006;2023-09-18T02:14:04;8.82;;;5.13;;
29416;SDS011;28421;51.030;4.006;2023-09-18T02:16:33;5.78;;;4.13;;
29416;SDS011;28421;51.030;4.006;2023-09-18T02:18:59;8.98;;;4.78;;
29416;SDS011;28421;51.030;4.006;2023-09-18T02:21:25;7.72;;;4.55;;
29416;SDS011;28421;51.030;4.006;2023-09-18T02:23:51;9.18;;;4.65;;
29416;SDS011;28421;51.030;4.006;2023-09-18T02:26:18;5.90;;;4.07;;
29416;SDS011;28421;51.030;4.006;2023-09-18T02:28:45;6.55;;;4.38;;
29416;SDS011;28421;51.030;4.006;2023-09-18T02:31:12;8.57;;;4.68;;
29416;SDS011;28421;51.030;4.006;2023-09-18T02:33:38;8.02;;;4.15;;
29416;SDS011;28421;51.030;4.006;2023-09-18T02:36:04;8.18;;;5.05;;
29416;SDS011;28421;51.030;4.006;2023-09-18T02:38:30;3.40;;;2.92;;
29416;SDS011;28421;51.030;4.006;2023-09-18T02:40:55;9.60;;;4.43;;
29416;SDS011;28421;51.030;4.006;2023-09-18T02:43:22;9.20;;;3.97;;
29416;SDS011;28421;51.030;4.006;2023-09-18T02:45:50;7.93;;;3.58;;
29416;SDS011;28421;51.030;4.006;2023-09-18T02:48:16;5.93;;;4.03;;
29416;SDS011;28421;51.030;4.006;2023-09-18T02:50:42;6.20;;;3.67;;
29416;SDS011;28421;51.030;4.006;2023-09-18T02:53:18;4.53;;;3.38;;
29416;SDS011;28421;51.030;4.006;2023-09-18T02:55:46;5.82;;;3.55;;
29416;SDS011;28421;51.030;4.006;2023-09-18T02:58:12;7.68;;;3.33;;
29416;SDS011;28421;51.030;4.006;2023-09-18T03:00:41;4.88;;;3.42;;
29416;SDS011;28421;51.030;4.006;2023-09-18T03:03:11;4.25;;;2.92;;
29416;SDS011;28421;51.030;4.006;2023-09-18T03:05:37;5.93;;;3.38;;
29416;SDS011;28421;51.030;4.006;2023-09-18T03:08:03;3.90;;;3.20;;
29416;SDS011;28421;51.030;4.006;2023-09-18T03:10:36;5.53;;;3.10;;
29416;SDS011;28421;51.030;4.006;2023-09-18T03:13:05;7.38;;;3.65;;
29416;SDS011;28421;51.030;4.006;2023-09-18T03:15:31;7.00;;;3.25;;
29416;SDS011;28421;51.030;4.006;2023-09-18T03:17:58;6.10;;;3.83;;
29416;SDS011;28421;51.030;4.006;2023-09-18T03:20:26;7.30;;;3.25;;
29416;SDS011;28421;51.030;4.006;2023-09-18T03:22:59;7.00;;;3.50;;
29416;SDS011;28421;51.030;4.006;2023-09-18T03:25:27;5.40;;;3.90;;
29416;SDS011;28421;51.030;4.006;2023-09-18T03:27:55;14.25;;;3.60;;
29416;SDS011;28421;51.030;4.006;2023-09-18T03:30:26;6.82;;;4.28;;
29416;SDS011;28421;51.030;4.006;2023-09-18T03:32:52;8.68;;;3.67;;
29416;SDS011;28421;51.030;4.006;2023-09-18T03:35:19;6.10;;;3.67;;
29416;SDS011;28421;51.030;4.006;2023-09-18T03:37:47;5.18;;;4.22;;
29416;SDS011;28421;51.030;4.006;2023-09-18T03:40:14;7.00;;;3.38;;
29416;SDS011;28421;51.030;4.006;2023-09-18T03:42:40;9.15;;;3.72;;
29416;SDS011;28421;51.030;4.006;2023-09-18T03:45:06;5.72;;;3.90;;
29416;SDS011;28421;51.030;4.006;2023-09-18T03:47:34;6.82;;;4.30;;
29416;SDS011;28421;51.030;4.006;2023-09-18T03:50:01;11.98;;;4.15;;
29416;SDS011;28421;51.030;4.006;2023-09-18T03:52:28;6.80;;;3.78;;
29416;SDS011;28421;51.030;4.006;2023-09-18T03:54:54;11.05;;;4.22;;
29416;SDS011;28421;51.030;4.006;2023-09-18T03:57:19;4.05;;;3.05;;
29416;SDS011;28421;51.030;4.006;2023-09-18T03:59:45;7.70;;;4.07;;
29416;SDS011;28421;51.030;4.006;2023-09-18T04:02:10;6.95;;;4.05;;
29416;SDS011;28421;51.030;4.006;2023-09-18T04:04:36;6.63;;;3.47;;
29416;SDS011;28421;51.030;4.006;2023-09-18T04:07:05;5.65;;;3.08;;
29416;SDS011;28421;51.030;4.006;2023-09-18T04:09:31;7.07;;;3.95;;
29416;SDS011;28421;51.030;4.006;2023-09-18T04:11:57;5.53;;;3.50;;
29416;SDS011;28421;51.030;4.006;2023-09-18T04:14:23;5.25;;;2.88;;
29416;SDS011;28421;51.030;4.006;2023-09-18T04:16:49;7.43;;;2.53;;
29416;SDS011;28421;51.030;4.006;2023-09-18T04:19:15;4.88;;;2.55;;
29416;SDS011;28421;51.030;4.006;2023-09-18T04:21:40;4.03;;;3.13;;
29416;SDS011;28421;51.030;4.006;2023-09-18T04:24:06;4.32;;;2.30;;
29416;SDS011;28421;51.030;4.006;2023-09-18T04:26:31;7.07;;;2.25;;
29416;SDS011;28421;51.030;4.006;2023-09-18T04:28:59;4.38;;;2.75;;
29416;SDS011;28421;51.030;4.006;2023-09-18T04:31:26;8.85;;;2.60;;
29416;SDS011;28421;51.030;4.006;2023-09-18T04:33:53;3.50;;;2.25;;
29416;SDS011;28421;51.030;4.006;2023-09-18T04:36:19;7.30;;;2.35;;
29416;SDS011;28421;51.030;4.006;2023-09-18T04:38:45;3.33;;;1.83;;
29416;SDS011;28421;51.030;4.006;2023-09-18T04:41:10;2.55;;;2.13;;
29416;SDS011;28421;51.030;4.006;2023-09-18T04:43:39;4.50;;;2.25;;
29416;SDS011;28421;51.030;4.006;2023-09-18T04:46:05;3.83;;;1.92;;
29416;SDS011;28421;51.030;4.006;2023-09-18T04:48:31;2.85;;;1.92;;
29416;SDS011;28421;51.030;4.006;2023-09-18T04:50:58;4.97;;;2.08;;
29416;SDS011;28421;51.030;4.006;2023-09-18T04:53:27;5.38;;;2.13;;
29416;SDS011;28421;51.030;4.006;2023-09-18T04:55:52;2.30;;;2.05;;
29416;SDS011;28421;51.030;4.006;2023-09-18T04:58:18;2.80;;;1.80;;
29416;SDS011;28421;51.030;4.006;2023-09-18T05:00:44;1.95;;;1.58;;
29416;SDS011;28421;51.030;4.006;2023-09-18T05:03:11;3.20;;;2.20;;
29416;SDS011;28421;51.030;4.006;2023-09-18T05:05:37;2.70;;;1.73;;
29416;SDS011;28421;51.030;4.006;2023-09-18T05:08:05;3.58;;;1.83;;
29416;SDS011;28421;51.030;4.006;2023-09-18T05:10:35;2.05;;;1.83;;
29416;SDS011;28421;51.030;4.006;2023-09-18T05:13:01;2.25;;;1.73;;
29416;SDS011;28421;51.030;4.006;2023-09-18T05:15:28;5.20;;;1.55;;
29416;SDS011;28421;51.030;4.006;2023-09-18T05:17:54;2.92;;;1.85;;
29416;SDS011;28421;51.030;4.006;2023-09-18T05:20:22;2.55;;;1.77;;
29416;SDS011;28421;51.030;4.006;2023-09-18T05:22:50;4.75;;;2.38;;
29416;SDS011;28421;51.030;4.006;2023-09-18T05:25:23;2.00;;;1.73;;
29416;SDS011;28421;51.030;4.006;2023-09-18T05:27:59;2.85;;;1.63;;
29416;SDS011;28421;51.030;4.006;2023-09-18T05:32:57;3.17;;;1.65;;
29416;SDS011;28421;51.030;4.006;2023-09-18T05:35:29;2.53;;;1.45;;
29416;SDS011;28421;51.030;4.006;2023-09-18T05:37:55;5.35;;;2.25;;
29416;SDS011;28421;51.030;4.006;2023-09-18T05:40:22;1.90;;;1.52;;
29416;SDS011;28421;51.030;4.006;2023-09-18T05:42:47;4.93;;;2.60;;
29416;SDS011;28421;51.030;4.006;2023-09-18T05:45:14;2.55;;;2.15;;
29416;SDS011;28421;51.030;4.006;2023-09-18T05:47:42;4.20;;;2.03;;
29416;SDS011;28421;51.030;4.006;2023-09-18T05:50:08;6.70;;;2.38;;
29416;SDS011;28421;51.030;4.006;2023-09-18T05:52:40;7.25;;;2.25;;
29416;SDS011;28421;51.030;4.006;2023-09-18T05:55:05;4.13;;;2.58;;
29416;SDS011;28421;51.030;4.006;2023-09-18T05:57:34;2.10;;;1.90;;
29416;SDS011;28421;51.030;4.006;2023-09-18T06:00:00;3.65;;;2.22;;
29416;SDS011;28421;51.030;4.006;2023-09-18T06:02:25;7.20;;;2.50;;
29416;SDS011;28421;51.030;4.006;2023-09-18T06:04:57;5.60;;;3.28;;
29416;SDS011;28421;51.030;4.006;2023-09-18T06:07:28;3.60;;;1.90;;
29416;SDS011;28421;51.030;4.006;2023-09-18T06:09:55;5.57;;;2.42;;
29416;SDS011;28421;51.030;4.006;2023-09-18T06:12:21;3.15;;;2.15;;
29416;SDS011;28421;51.030;4.006;2023-09-18T06:14:47;5.70;;;2.50;;
29416;SDS011;28421;51.030;4.006;2023-09-18T06:17:13;9.18;;;2.53;;
29416;SDS011;28421;51.030;4.006;2023-09-18T06:19:40;3.75;;;2.97;;
29416;SDS011;28421;51.030;4.006;2023-09-18T06:22:06;7.75;;;2.97;;
29416;SDS011;28421;51.030;4.006;2023-09-18T06:24:33;8.27;;;2.45;;
29416;SDS011;28421;51.030;4.006;2023-09-18T06:26:59;3.30;;;2.28;;
29416;SDS011;28421;51.030;4.006;2023-09-18T06:29:24;7.18;;;3.58;;
29416;SDS011;28421;51.030;4.006;2023-09-18T06:31:50;3.38;;;2.38;;
29416;SDS011;28421;51.030;4.006;2023-09-18T06:34:16;5.13;;;2.55;;
29416;SDS011;28421;51.030;4.006;2023-09-18T06:36:42;5.40;;;2.78;;
29416;SDS011;28421;51.030;4.006;2023-09-18T06:39:07;4.45;;;3.35;;
29416;SDS011;28421;51.030;4.006;2023-09-18T06:41:33;7.43;;;2.78;;
29416;SDS011;28421;51.030;4.006;2023-09-18T06:43:59;4.78;;;2.08;;
29416;SDS011;28421;51.030;4.006;2023-09-18T06:46:27;2.80;;;2.22;;
29416;SDS011;28421;51.030;4.006;2023-09-18T06:48:53;12.50;;;2.97;;
29416;SDS011;28421;51.030;4.006;2023-09-18T06:51:19;4.53;;;2.42;;
29416;SDS011;28421;51.030;4.006;2023-09-18T06:53:44;5.20;;;2.20;;
29416;SDS011;28421;51.030;4.006;2023-09-18T06:56:10;2.38;;;1.77;;
29416;SDS011;28421;51.030;4.006;2023-09-18T06:58:36;7.45;;;2.60;;
29416;SDS011;28421;51.030;4.006;2023-09-18T07:01:02;4.00;;;2.60;;
29416;SDS011;28421;51.030;4.006;2023-09-18T07:03:28;4.05;;;2.50;;
29416;SDS011;28421;51.030;4.006;2023-09-18T07:05:53;10.52;;;2.78;;
29416;SDS011;28421;51.030;4.006;2023-09-18T07:08:19;4.18;;;3.08;;
29416;SDS011;28421;51.030;4.006;2023-09-18T07:10:50;5.72;;;2.70;;
29416;SDS011;28421;51.030;4.006;2023-09-18T07:13:16;11.45;;;3.33;;
29416;SDS011;28421;51.030;4.006;2023-09-18T07:15:42;4.70;;;2.92;;
29416;SDS011;28421;51.030;4.006;2023-09-18T07:18:07;5.65;;;2.80;;
29416;SDS011;28421;51.030;4.006;2023-09-18T07:20:34;4.85;;;2.75;;
29416;SDS011;28421;51.030;4.006;2023-09-18T07:23:01;3.25;;;2.30;;
29416;SDS011;28421;51.030;4.006;2023-09-18T07:25:26;6.55;;;3.72;;
29416;SDS011;28421;51.030;4.006;2023-09-18T07:27:52;7.72;;;3.78;;
29416;SDS011;28421;51.030;4.006;2023-09-18T07:30:17;3.38;;;2.30;;
29416;SDS011;28421;51.030;4.006;2023-09-18T07:32:45;8.82;;;3.47;;
29416;SDS011;28421;51.030;4.006;2023-09-18T07:35:11;4.63;;;2.85;;
29416;SDS011;28421;51.030;4.006;2023-09-18T07:37:38;10.35;;;2.90;;
29416;SDS011;28421;51.030;4.006;2023-09-18T07:40:07;3.13;;;2.65;;
29416;SDS011;28421;51.030;4.006;2023-09-18T07:42:33;4.38;;;2.92;;
29416;SDS011;28421;51.030;4.006;2023-09-18T07:44:58;6.63;;;2.90;;
29416;SDS011;28421;51.030;4.006;2023-09-18T07:47:24;4.75;;;3.08;;
29416;SDS011;28421;51.030;4.006;2023-09-18T07:49:50;4.57;;;2.88;;
29416;SDS011;28421;51.030;4.006;2023-09-18T07:52:16;6.43;;;3.05;;
29416;SDS011;28421;51.030;4.006;2023-09-18T07:54:43;2.95;;;2.33;;
29416;SDS011;28421;51.030;4.006;2023-09-18T07:57:09;5.28;;;2.67;;
29416;SDS011;28421;51.030;4.006;2023-09-18T07:59:35;5.15;;;2.97;;
29416;SDS011;28421;51.030;4.006;2023-09-18T08:02:01;10.50;;;2.38;;
29416;SDS011;28421;51.030;4.006;2023-09-18T08:04:27;11.23;;;3.50;;
29416;SDS011;28421;51.030;4.006;2023-09-18T08:06:52;9.57;;;2.83;;
29416;SDS011;28421;51.030;4.006;2023-09-18T08:09:18;5.07;;;3.30;;
29416;SDS011;28421;51.030;4.006;2023-09-18T08:11:43;11.90;;;3.63;;
29416;SDS011;28421;51.030;4.006;2023-09-18T08:14:09;5.43;;;3.05;;
29416;SDS011;28421;51.030;4.006;2023-09-18T08:16:35;8.10;;;3.58;;
29416;SDS011;28421;51.030;4.006;2023-09-18T08:19:02;10.68;;;4.18;;
29416;SDS011;28421;51.030;4.006;2023-09-18T08:21:28;7.20;;;3.50;;
29416;SDS011;28421;51.030;4.006;2023-09-18T08:23:54;3.80;;;3.20;;
29416;SDS011;28421;51.030;4.006;2023-09-18T08:26:21;8.55;;;3.65;;
29416;SDS011;28421;51.030;4.006;2023-09-18T08:28:47;11.43;;;3.97;;
29416;SDS011;28421;51.030;4.006;2023-09-18T08:31:12;5.47;;;2.92;;
29416;SDS011;28421;51.030;4.006;2023-09-18T08:33:39;3.58;;;2.88;;
29416;SDS011;28421;51.030;4.006;2023-09-18T08:36:04;5.68;;;3.88;;
29416;SDS011;28421;51.030;4.006;2023-09-18T08:38:30;9.10;;;4.35;;
29416;SDS011;28421;51.030;4.006;2023-09-18T08:40:56;8.75;;;3.90;;
29416;SDS011;28421;51.030;4.006;2023-09-18T08:43:22;5.05;;;3.25;;
29416;SDS011;28421;51.030;4.006;2023-09-18T08:45:52;6.45;;;4.30;;
29416;SDS011;28421;51.030;4.006;2023-09-18T08:48:19;13.32;;;4.80;;
29416;SDS011;28421;51.030;4.006;2023-09-18T08:50:46;11.68;;;5.07;;
29416;SDS011;28421;51.030;4.006;2023-09-18T08:53:13;15.40;;;6.18;;
29416;SDS011;28421;51.030;4.006;2023-09-18T08:55:40;7.78;;;5.93;;
29416;SDS011;28421;51.030;4.006;2023-09-18T08:58:06;9.43;;;6.93;;
29416;SDS011;28421;51.030;4.006;2023-09-18T09:00:38;8.98;;;5.75;;
29416;SDS011;28421;51.030;4.006;2023-09-18T09:03:04;9.52;;;5.25;;
29416;SDS011;28421;51.030;4.006;2023-09-18T09:05:30;11.80;;;5.90;;
29416;SDS011;28421;51.030;4.006;2023-09-18T09:07:56;7.47;;;5.13;;
29416;SDS011;28421;51.030;4.006;2023-09-18T09:10:22;9.27;;;5.25;;
29416;SDS011;28421;51.030;4.006;2023-09-18T09:12:48;12.73;;;6.53;;
29416;SDS011;28421;51.030;4.006;2023-09-18T09:15:19;10.27;;;5.72;;
29416;SDS011;28421;51.030;4.006;2023-09-18T09:17:46;9.05;;;4.65;;
29416;SDS011;28421;51.030;4.006;2023-09-18T09:20:12;12.43;;;5.97;;
29416;SDS011;28421;51.030;4.006;2023-09-18T09:22:39;8.07;;;5.18;;
29416;SDS011;28421;51.030;4.006;2023-09-18T09:25:21;7.13;;;6.30;;
29416;SDS011;28421;51.030;4.006;2023-09-18T09:27:56;6.70;;;5.07;;
29416;SDS011;28421;51.030;4.006;2023-09-18T09:30:24;9.07;;;5.28;;
29416;SDS011;28421;51.030;4.006;2023-09-18T09:32:52;7.75;;;5.55;;
29416;SDS011;28421;51.030;4.006;2023-09-18T09:35:27;14.40;;;6.35;;
29416;SDS011;28421;51.030;4.006;2023-09-18T09:38:00;10.63;;;5.45;;
29416;SDS011;28421;51.030;4.006;2023-09-18T09:40:31;7.45;;;4.47;;
29416;SDS011;28421;51.030;4.006;2023-09-18T09:42:57;8.00;;;5.10;;
29416;SDS011;28421;51.030;4.006;2023-09-18T09:45:30;8.68;;;4.72;;
29416;SDS011;28421;51.030;4.006;2023-09-18T09:48:00;10.75;;;5.60;;
29416;SDS011;28421;51.030;4.006;2023-09-18T09:50:29;9.02;;;5.45;;
29416;SDS011;28421;51.030;4.006;2023-09-18T09:52:55;8.77;;;4.80;;
29416;SDS011;28421;51.030;4.006;2023-09-18T09:55:28;10.18;;;4.70;;
29416;SDS011;28421;51.030;4.006;2023-09-18T09:57:59;8.20;;;4.60;;
29416;SDS011;28421;51.030;4.006;2023-09-18T10:00:28;6.22;;;4.00;;
29416;SDS011;28421;51.030;4.006;2023-09-18T10:03:02;13.88;;;4.75;;
29416;SDS011;28421;51.030;4.006;2023-09-18T10:05:34;6.45;;;3.78;;
29416;SDS011;28421;51.030;4.006;2023-09-18T10:08:07;5.70;;;4.00;;
29416;SDS011;28421;51.030;4.006;2023-09-18T10:13:07;15.35;;;4.90;;
29416;SDS011;28421;51.030;4.006;2023-09-18T10:15:36;8.63;;;4.17;;
29416;SDS011;28421;51.030;4.006;2023-09-18T10:18:06;5.93;;;3.65;;
29416;SDS011;28421;51.030;4.006;2023-09-18T10:20:39;5.00;;;3.90;;
29416;SDS011;28421;51.030;4.006;2023-09-18T10:23:11;6.45;;;4.05;;
29416;SDS011;28421;51.030;4.006;2023-09-18T10:25:45;5.05;;;3.40;;
29416;SDS011;28421;51.030;4.006;2023-09-18T10:28:13;6.50;;;3.70;;
29416;SDS011;28421;51.030;4.006;2023-09-18T10:30:40;11.85;;;4.90;;
29416;SDS011;28421;51.030;4.006;2023-09-18T10:33:08;6.38;;;5.10;;
29416;SDS011;28421;51.030;4.006;2023-09-18T10:35:34;8.40;;;4.70;;
29416;SDS011;28421;51.030;4.006;2023-09-18T10:38:01;8.65;;;4.28;;
29416;SDS011;28421;51.030;4.006;2023-09-18T10:40:28;5.82;;;3.80;;
29416;SDS011;28421;51.030;4.006;2023-09-18T10:42:55;4.57;;;3.38;;
29416;SDS011;28421;51.030;4.006;2023-09-18T10:45:23;7.47;;;3.47;;
29416;SDS011;28421;51.030;4.006;2023-09-18T10:47:49;5.32;;;2.95;;
29416;SDS011;28421;51.030;4.006;2023-09-18T10:50:23;4.18;;;2.50;;
29416;SDS011;28421;51.030;4.006;2023-09-18T10:52:50;5.68;;;2.50;;
29416;SDS011;28421;51.030;4.006;2023-09-18T10:55:15;4.63;;;2.35;;
29416;SDS011;28421;51.030;4.006;2023-09-18T10:57:51;3.05;;;2.00;;
29416;SDS011;28421;51.030;4.006;2023-09-18T11:00:17;9.63;;;2.72;;
29416;SDS011;28421;51.030;4.006;2023-09-18T11:02:48;2.63;;;2.20;;
29416;SDS011;28421;51.030;4.006;2023-09-18T11:05:26;6.30;;;2.83;;
29416;SDS011;28421;51.030;4.006;2023-09-18T11:10:59;2.42;;;2.22;;
29416;SDS011;28421;51.030;4.006;2023-09-18T11:13:29;7.18;;;2.15;;
29416;SDS011;28421;51.030;4.006;2023-09-18T11:21:24;6.00;;;3.13;;
29416;SDS011;28421;51.030;4.006;2023-09-18T11:26:43;4.35;;;2.53;;
29416;SDS011;28421;51.030;4.006;2023-09-18T11:29:12;2.60;;;1.98;;
29416;SDS011;28421;51.030;4.006;2023-09-18T11:34:19;4.38;;;2.05;;
29416;SDS011;28421;51.030;4.006;2023-09-18T11:36:47;3.97;;;1.92;;
29416;SDS011;28421;51.030;4.006;2023-09-18T11:39:13;5.72;;;2.22;;
29416;SDS011;28421;51.030;4.006;2023-09-18T11:42:06;2.63;;;2.20;;
29416;SDS011;28421;51.030;4.006;2023-09-18T11:44:35;3.17;;;2.28;;
29416;SDS011;28421;51.030;4.006;2023-09-18T11:47:11;4.43;;;1.92;;
29416;SDS011;28421;51.030;4.006;2023-09-18T11:49:49;3.78;;;2.65;;
29416;SDS011;28421;51.030;4.006;2023-09-18T11:52:22;3.70;;;2.10;;
29416;SDS011;28421;51.030;4.006;2023-09-18T11:54:48;9.27;;;2.67;;
29416;SDS011;28421;51.030;4.006;2023-09-18T11:57:15;2.22;;;2.00;;
29416;SDS011;28421;51.030;4.006;2023-09-18T11:59:41;7.60;;;2.60;;
29416;SDS011;28421;51.030;4.006;2023-09-18T12:02:27;2.78;;;1.88;;
29416;SDS011;28421;51.030;4.006;2023-09-18T12:04:55;3.08;;;1.60;;
29416;SDS011;28421;51.030;4.006;2023-09-18T12:07:21;2.13;;;1.67;;
29416;SDS011;28421;51.030;4.006;2023-09-18T12:09:48;5.13;;;2.22;;
29416;SDS011;28421;51.030;4.006;2023-09-18T12:12:24;1.63;;;1.50;;
29416;SDS011;28421;51.030;4.006;2023-09-18T12:14:53;5.10;;;1.90;;
29416;SDS011;28421;51.030;4.006;2023-09-18T12:17:42;2.80;;;1.63;;
29416;SDS011;28421;51.030;4.006;2023-09-18T12:20:14;9.23;;;2.05;;
29416;SDS011;28421;51.030;4.006;2023-09-18T12:22:48;4.90;;;1.80;;
29416;SDS011;28421;51.030;4.006;2023-09-18T12:25:18;4.20;;;2.47;;
29416;SDS011;28421;51.030;4.006;2023-09-18T12:27:55;1.83;;;1.50;;
29416;SDS011;28421;51.030;4.006;2023-09-18T12:30:21;2.38;;;1.67;;
29416;SDS011;28421;51.030;4.006;2023-09-18T12:32:48;3.38;;;1.60;;
29416;SDS011;28421;51.030;4.006;2023-09-18T12:35:17;5.15;;;1.67;;
29416;SDS011;28421;51.030;4.006;2023-09-18T12:37:45;2.75;;;1.70;;
29416;SDS011;28421;51.030;4.006;2023-09-18T12:40:21;4.20;;;1.85;;
29416;SDS011;28421;51.030;4.006;2023-09-18T12:42:51;4.18;;;1.60;;
29416;SDS011;28421;51.030;4.006;2023-09-18T12:45:18;7.95;;;1.58;;
29416;SDS011;28421;51.030;4.006;2023-09-18T12:47:45;3.72;;;1.23;;
29416;SDS011;28421;51.030;4.006;2023-09-18T12:50:13;1.83;;;1.70;;
29416;SDS011;28421;51.030;4.006;2023-09-18T12:52:40;4.53;;;1.40;;
29416;SDS011;28421;51.030;4.006;2023-09-18T12:55:06;2.75;;;1.45;;
29416;SDS011;28421;51.030;4.006;2023-09-18T12:57:32;6.53;;;2.10;;
29416;SDS011;28421;51.030;4.006;2023-09-18T12:59:58;2.38;;;1.50;;
29416;SDS011;28421;51.030;4.006;2023-09-18T13:02:23;8.68;;;1.65;;
29416;SDS011;28421;51.030;4.006;2023-09-18T13:04:53;2.30;;;1.42;;
29416;SDS011;28421;51.030;4.006;2023-09-18T13:07:20;7.55;;;1.83;;
29416;SDS011;28421;51.030;4.006;2023-09-18T13:12:25;2.58;;;1.63;;
29416;SDS011;28421;51.030;4.006;2023-09-18T13:14:57;3.17;;;1.20;;
29416;SDS011;28421;51.030;4.006;2023-09-18T13:17:37;3.28;;;1.90;;
29416;SDS011;28421;51.030;4.006;2023-09-18T13:20:10;3.10;;;1.42;;
29416;SDS011;28421;51.030;4.006;2023-09-18T13:25:05;1.55;;;1.35;;
29416;SDS011;28421;51.030;4.006;2023-09-18T13:27:32;1.17;;;1.00;;
29416;SDS011;28421;51.030;4.006;2023-09-18T13:29:58;3.05;;;1.27;;
29416;SDS011;28421;51.030;4.006;2023-09-18T13:32:33;3.67;;;1.40;;
29416;SDS011;28421;51.030;4.006;2023-09-18T13:34:59;4.05;;;1.83;;
29416;SDS011;28421;51.030;4.006;2023-09-18T13:37:25;3.33;;;1.13;;
29416;SDS011;28421;51.030;4.006;2023-09-18T13:39:52;1.80;;;1.63;;
29416;SDS011;28421;51.030;4.006;2023-09-18T13:42:17;1.50;;;0.95;;
29416;SDS011;28421;51.030;4.006;2023-09-18T13:44:43;5.85;;;1.45;;
29416;SDS011;28421;51.030;4.006;2023-09-18T13:47:08;4.85;;;1.30;;
29416;SDS011;28421;51.030;4.006;2023-09-18T13:49:34;2.65;;;1.45;;
29416;SDS011;28421;51.030;4.006;2023-09-18T13:51:59;4.18;;;2.05;;
29416;SDS011;28421;51.030;4.006;2023-09-18T13:54:25;5.28;;;2.28;;
29416;SDS011;28421;51.030;4.006;2023-09-18T13:56:51;2.05;;;1.40;;
29416;SDS011;28421;51.030;4.006;2023-09-18T13:59:16;2.33;;;1.67;;
29416;SDS011;28421;51.030;4.006;2023-09-18T14:01:42;9.43;;;1.90;;
29416;SDS011;28421;51.030;4.006;2023-09-18T14:04:07;2.95;;;1.88;;
29416;SDS011;28421;51.030;4.006;2023-09-18T14:06:33;4.60;;;1.65;;
29416;SDS011;28421;51.030;4.006;2023-09-18T14:08:58;2.42;;;1.60;;
29416;SDS011;28421;51.030;4.006;2023-09-18T14:11:24;3.45;;;1.33;;
29416;SDS011;28421;51.030;4.006;2023-09-18T14:13:49;4.72;;;1.63;;
29416;SDS011;28421;51.030;4.006;2023-09-18T14:16:16;1.73;;;1.17;;
29416;SDS011;28421;51.030;4.006;2023-09-18T14:18:43;2.15;;;1.70;;
29416;SDS011;28421;51.030;4.006;2023-09-18T14:21:08;1.80;;;1.52;;
29416;SDS011;28421;51.030;4.006;2023-09-18T14:23:34;8.02;;;1.80;;
29416;SDS011;28421;51.030;4.006;2023-09-18T14:25:59;2.03;;;1.60;;
29416;SDS011;28421;51.030;4.006;2023-09-18T14:28:26;7.93;;;2.30;;
29416;SDS011;28421;51.030;4.006;2023-09-18T14:30:51;5.00;;;2.05;;
29416;SDS011;28421;51.030;4.006;2023-09-18T14:33:17;2.40;;;1.65;;
29416;SDS011;28421;51.030;4.006;2023-09-18T14:35:42;3.13;;;1.33;;
29416;SDS011;28421;51.030;4.006;2023-09-18T14:38:08;3.28;;;2.25;;
29416;SDS011;28421;51.030;4.006;2023-09-18T14:40:34;4.25;;;1.52;;
29416;SDS011;28421;51.030;4.006;2023-09-18T14:43:00;6.07;;;1.42;;
29416;SDS011;28421;51.030;4.006;2023-09-18T14:45:25;2.67;;;1.75;;
29416;SDS011;28421;51.030;4.006;2023-09-18T14:47:51;2.35;;;2.00;;
29416;SDS011;28421;51.030;4.006;2023-09-18T14:50:17;4.18;;;3.30;;
29416;SDS011;28421;51.030;4.006;2023-09-18T14:52:43;3.17;;;2.03;;
29416;SDS011;28421;51.030;4.006;2023-09-18T14:55:08;3.63;;;2.20;;
29416;SDS011;28421;51.030;4.006;2023-09-18T14:57:34;6.32;;;2.90;;
29416;SDS011;28421;51.030;4.006;2023-09-18T14:59:59;4.72;;;2.25;;
29416;SDS011;28421;51.030;4.006;2023-09-18T15:02:25;4.32;;;2.28;;
29416;SDS011;28421;51.030;4.006;2023-09-18T15:04:55;6.03;;;2.80;;
29416;SDS011;28421;51.030;4.006;2023-09-18T15:07:20;2.60;;;1.88;;
29416;SDS011;28421;51.030;4.006;2023-09-18T15:09:45;4.35;;;2.03;;
29416;SDS011;28421;51.030;4.006;2023-09-18T15:12:11;4.15;;;1.73;;
29416;SDS011;28421;51.030;4.006;2023-09-18T15:14:37;3.35;;;1.58;;
29416;SDS011;28421;51.030;4.006;2023-09-18T15:17:02;3.80;;;1.75;;